Time;durP1;ratioP1;P1;durP2;ratioP2;P2;SDS_P1;SDS_P2;PMS_P1;PMS_P2;Temp;Humidity;BMP_temperature;BMP_pressure;BME280_temperature;BME280_humidity;BME280_pressure;Samples;Min_cycle;Max_cycle;Signal;HPM_P1;HPM_P2
2023/12/09 00:13:05;;;;;;;9.30;6.95;;;;;;;20.26;51.68;100732.16;41662418;28;20041;-71
2023/12/09 00:33:05;;;;;;;8.35;7.07;;;;;;;20.23;51.53;100733.19;41614425;28;20727;-71
2023/12/09 00:53:06;;;;;;;8.20;6.95;;;;;;;20.22;51.76;100735.94;41633091;28;20124;-71
2023/12/09 01:13:06;;;;;;;9.18;7.30;;;;;;;20.24;51.90;100737.50;41621029;28;20044;-71
2023/12/09 01:33:07;;;;;;;8.35;6.63;;;;;;;20.23;51.67;100732.38;41634165;28;20041;-71
2023/12/09 01:53:08;;;;;;;10.45;6.95;;;;;;;20.20;51.66;100716.78;41647918;28;20037;-71
2023/12/09 02:13:20;;;;;;;8.65;6.90;;;;;;;20.21;51.77;100732.44;41641032;28;20038;-71
2023/12/09 02:33:22;;;;;;;9.23;6.85;;;;;;;20.21;51.44;100723.72;41639874;28;20046;-71
2023/12/09 02:53:22;;;;;;;8.15;6.50;;;;;;;20.21;51.59;100729.81;41657678;28;20041;-72
2023/12/09 03:13:23;;;;;;;8.30;6.50;;;;;;;20.19;51.30;100731.72;41674824;28;20037;-71
2023/12/09 03:33:24;;;;;;;8.32;6.68;;;;;;;20.20;51.27;100738.69;41662349;28;20397;-72
2023/12/09 03:53:25;;;;;;;7.97;6.40;;;;;;;20.22;50.92;100751.72;41653700;28;20045;-70
2023/12/09 04:13:27;;;;;;;8.30;6.90;;;;;;;20.38;50.57;100757.59;41612142;28;20033;-78
2023/12/09 04:33:28;;;;;;;14.07;8.77;;;;;;;20.45;50.78;100753.63;41594842;28;20041;-72
2023/12/09 04:53:28;;;;;;;13.82;8.23;;;;;;;20.27;51.88;100752.25;41603716;28;20041;-69
2023/12/09 05:13:29;;;;;;;15.40;8.15;;;;;;;20.26;51.68;100768.97;41633618;28;20075;-70
2023/12/09 05:33:29;;;;;;;13.10;7.50;;;;;;;20.84;50.59;100768.59;41637114;28;20451;-70
2023/12/09 05:53:29;;;;;;;9.93;7.35;;;;;;;20.94;50.33;100772.25;41658101;28;20060;-69
2023/12/09 06:13:31;;;;;;;16.13;7.07;;;;;;;21.15;49.79;100772.50;41595770;28;20048;-67
2023/12/09 06:33:31;;;;;;;23.98;14.05;;;;;;;21.34;50.11;100776.47;41629142;28;20060;-67
2023/12/09 06:53:31;;;;;;;20.15;12.60;;;;;;;21.41;49.78;100781.19;41664712;28;20033;-70
2023/12/09 07:13:32;;;;;;;18.00;11.32;;;;;;;21.49;49.30;100790.34;41674921;28;20049;-68
2023/12/09 07:33:32;;;;;;;14.88;10.15;;;;;;;21.40;49.38;100795.31;41674937;28;20124;-69
2023/12/09 07:53:33;;;;;;;14.52;10.15;;;;;;;21.39;49.30;100796.25;41677823;28;20504;-68
2023/12/09 08:13:33;;;;;;;14.10;9.77;;;;;;;21.39;48.92;100798.88;41663861;28;20040;-70
2023/12/09 08:33:34;;;;;;;13.90;8.82;;;;;;;21.41;48.83;100783.81;41650944;28;20067;-69
2023/12/09 08:53:34;;;;;;;12.68;8.68;;;;;;;21.54;48.85;100791.66;41672526;28;20116;-69
2023/12/09 09:13:34;;;;;;;19.95;12.55;;;;;;;21.19;46.13;100787.16;41644193;28;20044;-68
2023/12/09 09:33:35;;;;;;;15.40;10.27;;;;;;;21.52;48.26;100775.16;41664258;28;20049;-67
2023/12/09 09:53:41;;;;;;;15.48;10.13;;;;;;;21.43;49.99;100763.47;41654204;28;20048;-73
2023/12/09 10:13:43;;;;;;;12.90;10.02;;;;;;;21.55;49.31;100738.00;41649776;28;20050;-73
2023/12/09 10:33:44;;;;;;;14.77;10.07;;;;;;;21.56;49.17;100728.34;41650126;28;20053;-71
2023/12/09 10:53:45;;;;;;;30.50;14.35;;;;;;;21.37;49.76;100699.84;41670905;28;20034;-72
2023/12/09 11:13:47;;;;;;;27.23;14.70;;;;;;;21.57;51.23;100672.06;41676189;28;20164;-67
2023/12/09 11:33:49;;;;;;;26.38;14.65;;;;;;;21.77;52.50;100680.28;41701718;28;20049;-71
2023/12/09 11:53:57;;;;;;;20.92;14.07;;;;;;;21.65;51.84;100674.97;41646902;28;20038;-69
2023/12/09 12:13:58;;;;;;;26.48;14.98;;;;;;;21.77;51.89;100644.22;41685456;28;20033;-66
2023/12/09 12:34:13;;;;;;;25.73;15.23;;;;;;;21.86;52.59;100654.06;41679657;28;20132;-68
2023/12/09 12:54:13;;;;;;;21.15;15.43;;;;;;;21.67;56.20;100643.25;41627232;28;20048;-69
2023/12/09 13:14:14;;;;;;;24.77;15.80;;;;;;;21.68;56.69;100621.19;41664103;28;20423;-68
2023/12/09 13:34:14;;;;;;;25.13;15.25;;;;;;;21.49;56.08;100638.34;41654080;28;20582;-69
2023/12/09 13:54:20;;;;;;;21.35;14.07;;;;;;;21.53;54.22;100631.06;41649329;28;20037;-75
2023/12/09 14:14:20;;;;;;;19.88;14.27;;;;;;;21.43;53.51;100621.22;41654032;28;20054;-69
2023/12/09 14:34:21;;;;;;;19.10;13.77;;;;;;;21.38;53.17;100611.97;41654657;28;20053;-70
2023/12/09 14:54:22;;;;;;;17.38;12.68;;;;;;;21.40;53.02;100589.00;41670670;28;20535;-69
2023/12/09 15:14:22;;;;;;;16.38;12.30;;;;;;;21.27;52.22;100571.47;41656760;28;20084;-68
2023/12/09 15:34:23;;;;;;;20.10;12.15;;;;;;;21.18;52.90;100548.47;41638217;28;20034;-68
2023/12/09 15:54:24;;;;;;;17.70;11.98;;;;;;;21.13;52.62;100547.13;41634850;28;20050;-68
2023/12/09 16:14:24;;;;;;;16.48;11.75;;;;;;;20.95;52.23;100537.84;41675474;28;20049;-74
2023/12/09 16:34:24;;;;;;;22.45;12.02;;;;;;;20.88;52.51;100520.00;41603850;28;20107;-68
2023/12/09 16:54:25;;;;;;;19.42;12.07;;;;;;;20.85;52.39;100502.63;41660008;28;20037;-70
2023/12/09 17:14:25;;;;;;;17.40;11.60;;;;;;;20.79;52.20;100503.09;41671816;28;20045;-70
2023/12/09 17:34:26;;;;;;;18.35;12.25;;;;;;;20.71;52.17;100497.53;41632588;28;20504;-69
2023/12/09 17:54:27;;;;;;;17.67;11.25;;;;;;;20.78;51.25;100483.00;41618553;28;20501;-68
2023/12/09 18:14:27;;;;;;;15.43;10.88;;;;;;;20.81;50.79;100466.13;41633906;28;20850;-73
2023/12/09 18:34:28;;;;;;;16.88;10.45;;;;;;;20.78;51.44;100452.25;41644007;28;20134;-65
2023/12/09 18:54:28;;;;;;;14.60;10.98;;;;;;;20.63;51.71;100434.94;41624751;28;20072;-73
2023/12/09 19:14:28;;;;;;;18.25;10.48;;;;;;;20.83;51.46;100390.53;41647887;28;20045;-72
2023/12/09 19:34:29;;;;;;;12.68;9.60;;;;;;;20.71;52.33;100366.78;41606729;28;20063;-72
2023/12/09 19:54:29;;;;;;;14.93;10.45;;;;;;;20.63;51.53;100333.16;41632737;28;20187;-70
2023/12/09 20:14:29;;;;;;;12.77;9.70;;;;;;;20.67;51.54;100311.91;41609630;28;20099;-71
2023/12/09 20:34:30;;;;;;;13.32;10.02;;;;;;;20.63;50.77;100290.25;41652264;28;20048;-67
2023/12/09 20:54:31;;;;;;;19.02;11.50;;;;;;;20.68;51.14;100271.47;41647687;28;20057;-70
2023/12/09 21:14:31;;;;;;;18.27;12.10;;;;;;;20.75;51.88;100238.47;41632488;28;20068;-68
2023/12/09 21:34:35;;;;;;;17.52;11.93;;;;;;;20.52;51.33;100199.00;41620239;28;20037;-66
2023/12/09 21:54:35;;;;;;;17.70;11.00;;;;;;;20.56;51.54;100196.97;41679219;28;20404;-67
2023/12/09 22:14:37;;;;;;;19.42;11.95;;;;;;;20.29;50.51;100156.91;41642516;28;20045;-67
2023/12/09 22:34:37;;;;;;;22.77;12.07;;;;;;;20.27;51.15;100131.69;41664348;28;20053;-71
2023/12/09 22:54:38;;;;;;;16.60;11.68;;;;;;;20.35;50.94;100136.34;41660598;28;20451;-66
2023/12/09 23:14:38;;;;;;;16.48;11.30;;;;;;;20.29;51.26;100127.97;41679249;28;20113;-68
2023/12/09 23:34:38;;;;;;;17.83;11.70;;;;;;;20.25;51.78;100060.81;41692968;28;20537;-68
2023/12/09 23:54:39;;;;;;;19.08;11.63;;;;;;;20.24;52.43;100042.56;41679668;28;20048;-66
